Home > Products > Valid Products > MTR

000
SAUS44 KEWX 252352
MTRATT
METAR KATT 252351Z AUTO 16003KT 10SM CLR 27/14 A3008 RMK AO2 SLP179
T02670139 10311 20267 55005





000
SAUS44 KEWX 252252
MTRATT
METAR KATT 252251Z AUTO 00000KT 10SM CLR 29/14 A3008 RMK AO2 SLP178
T02890144





000
SAUS44 KEWX 252152
MTRATT
METAR KATT 252151Z AUTO VRB03KT 10SM CLR 31/15 A3009 RMK AO2 SLP179
T03060150





000
SAUS44 KEWX 252052
MTRATT
METAR KATT 252051Z AUTO 00000KT 10SM CLR 31/15 A3010 RMK AO2 SLP181
T03110150 56021





000
SAUS44 KEWX 251952
MTRATT
METAR KATT 251951Z AUTO 00000KT 10SM CLR 30/15 A3011 RMK AO2 SLP186
T03000150





000
SAUS44 KEWX 251852
MTRATT
METAR KATT 251851Z AUTO VRB03KT 10SM CLR 30/16 A3014 RMK AO2 SLP194
T03000156





000
SAUS44 KEWX 251852
MTRATT
METAR KATT 251851Z AUTO VRB03KT 10SM CLR 30/16 A3014 RMK AO2 SLP194
T03000156





000
SAUS44 KEWX 251752
MTRATT
METAR KATT 251751Z AUTO 21004KT 10SM CLR 29/16 A3016 RMK AO2 SLP203
T02890161 10289 20167 58010





000
SAUS44 KEWX 251752
MTRATT
METAR KATT 251751Z AUTO 21004KT 10SM CLR 29/16 A3016 RMK AO2 SLP203
T02890161 10289 20167 58010





000
SAUS44 KEWX 251652
MTRATT
METAR KATT 251651Z AUTO VRB06KT 10SM CLR 27/16 A3019 RMK AO2 SLP210
T02720156





000
SAUS44 KEWX 251652
MTRATT
METAR KATT 251651Z AUTO VRB06KT 10SM CLR 27/16 A3019 RMK AO2 SLP210
T02720156





000
SAUS44 KEWX 251553
MTRATT
METAR KATT 251551Z AUTO VRB04KT 10SM CLR 26/16 A3019 RMK AO2 SLP214
T02560161





000
SAUS44 KEWX 251452
MTRATT
METAR KATT 251451Z AUTO 00000KT 10SM CLR 23/16 A3020 RMK AO2 SLP216
T02280161 53015





000
SAUS44 KEWX 251353
MTRATT
METAR KATT 251351Z AUTO 00000KT 10SM CLR 19/16 A3018 RMK AO2 SLP212
T01940156





000
SAUS44 KEWX 251252
MTRATT
METAR KATT 251251Z AUTO 00000KT 10SM CLR 17/14 A3016 RMK AO2 SLP206
T01670144





000
SAUS44 KEWX 251152
MTRATT
METAR KATT 251151Z AUTO 00000KT 10SM CLR 17/14 A3015 RMK AO2 SLP201
T01670144 10200 20167 53004





000
SAUS44 KEWX 251152
MTRATT
METAR KATT 251151Z AUTO 00000KT 10SM CLR 17/14 A3015 RMK AO2 SLP201
T01670144 10200 20167 53004





000
SAUS44 KEWX 251053
MTRATT
METAR KATT 251051Z AUTO 00000KT 10SM CLR 17/14 A3014 RMK AO2 SLP198
T01670144





000
SAUS44 KEWX 251053
MTRATT
METAR KATT 251051Z AUTO 00000KT 10SM CLR 17/14 A3014 RMK AO2 SLP198
T01670144





000
SAUS44 KEWX 250953
MTRATT
METAR KATT 250951Z AUTO 00000KT 10SM CLR 17/14 A3014 RMK AO2 SLP196
T01720144





000
SAUS44 KEWX 250852
MTRATT
METAR KATT 250851Z AUTO 00000KT 10SM CLR 18/14 A3014 RMK AO2 SLP196
T01780144 58005





000
SAUS44 KEWX 250752
MTRATT
METAR KATT 250751Z AUTO 00000KT 10SM CLR 18/14 A3015 RMK AO2 SLP199
T01830144





000
SAUS44 KEWX 250652
MTRATT
METAR KATT 250651Z AUTO 00000KT 10SM CLR 19/14 A3016 RMK AO2 SLP202
T01940144





000
SAUS44 KEWX 250553
MTRATT
METAR KATT 250551Z AUTO 00000KT 10SM CLR 20/15 A3016 RMK AO2 SLP201
T02000150 10261 20200 402940156 51005





000
SAUS44 KEWX 250452
MTRATT
METAR KATT 250451Z AUTO 00000KT 10SM CLR 21/15 A3015 RMK AO2 SLP201
T02110150





000
SAUS44 KEWX 250352
MTRATT
METAR KATT 250351Z AUTO 15003KT 10SM CLR 21/15 A3015 RMK AO2 SLP201
T02110150





000
SAUS44 KEWX 250352
MTRATT
METAR KATT 250351Z AUTO 15003KT 10SM CLR 21/15 A3015 RMK AO2 SLP201
T02110150





000
SAUS44 KEWX 250252
MTRATT
METAR KATT 250251Z AUTO 13003KT 10SM CLR 23/16 A3014 RMK AO2 SLP198
T02280156 51017





000
SAUS44 KEWX 250152
MTRATT
METAR KATT 250151Z AUTO 15004KT 10SM CLR 24/16 A3012 RMK AO2 SLP192
T02390156





000
SAUS44 KEWX 250053
MTRATT
METAR KATT 250051Z AUTO 11003KT 10SM CLR 24/16 A3011 RMK AO2 SLP189
T02440156





000
SAUS44 KEWX 242352
MTRATT
METAR KATT 242351Z AUTO 00000KT 10SM CLR 26/16 A3009 RMK AO2 SLP181
T02610156 10294 20261 56002





000
SAUS44 KEWX 242252
MTRATT
METAR KATT 242251Z AUTO 13003KT 10SM CLR 28/16 A3009 RMK AO2 SLP181
T02780156





000
SAUS44 KEWX 242152
MTRATT
METAR KATT 242151Z AUTO 13005KT 10SM CLR 29/16 A3009 RMK AO2 SLP180
T02890156





000
SAUS44 KEWX 242052
MTRATT
METAR KATT 242051Z AUTO 00000KT 10SM CLR 29/16 A3010 RMK AO2 SLP181
T02940161 56027





000
SAUS44 KEWX 241953
MTRATT
METAR KATT 241951Z AUTO 15003KT 10SM CLR 29/16 A3011 RMK AO2 SLP186
T02890161 $





000
SAUS44 KEWX 241953
MTRATT
METAR KATT 241951Z AUTO 15003KT 10SM CLR 29/16 A3011 RMK AO2 SLP186
T02890161 $





000
SAUS44 KEWX 241852
MTRATT
METAR KATT 241851Z AUTO VRB03KT 10SM CLR 28/16 A3015 RMK AO2 SLP198
T02780161





000
SAUS44 KEWX 241753
MTRATT
METAR KATT 241751Z AUTO VRB03KT 10SM CLR 27/16 A3018 RMK AO2 SLP208
T02720161 10272 20156 58007





000
SAUS44 KEWX 241652
MTRATT
METAR KATT 241651Z AUTO VRB03KT 10SM CLR 25/16 A3019 RMK AO2 SLP214
T02500156





000
SAUS44 KEWX 241552
MTRATT
METAR KATT 241551Z AUTO VRB03KT 10SM CLR 23/14 A3020 RMK AO2 SLP217
T02280144





000
SAUS44 KEWX 241453
MTRATT
METAR KATT 241451Z AUTO VRB03KT 10SM CLR 21/14 A3020 RMK AO2 SLP217
T02060144 53017





000
SAUS44 KEWX 241352
MTRATT
METAR KATT 241351Z AUTO 00000KT 10SM CLR 18/14 A3017 RMK AO2 SLP210
T01780139





000
SAUS44 KEWX 241252
MTRATT
METAR KATT 241251Z AUTO 00000KT 10SM CLR 16/13 A3016 RMK AO2 SLP206
T01560133





000
SAUS44 KEWX 241153
MTRATT
METAR KATT 241151Z AUTO 00000KT 10SM FEW065 16/13 A3015 RMK AO2
SLP201 T01610133 10189 20161 53005





000
SAUS44 KEWX 241052
MTRATT
METAR KATT 241051Z AUTO 00000KT 10SM CLR 17/13 A3013 RMK AO2 SLP196
T01670133





000
SAUS44 KEWX 241052
MTRATT
METAR KATT 241051Z AUTO 00000KT 10SM CLR 17/13 A3013 RMK AO2 SLP196
T01670133





000
SAUS44 KEWX 240953
MTRATT
METAR KATT 240951Z AUTO 00000KT 10SM CLR 17/14 A3014 RMK AO2 SLP196
T01720139





000
SAUS44 KEWX 240852
MTRATT
METAR KATT 240851Z AUTO 00000KT 10SM CLR 17/14 A3013 RMK AO2 SLP194
T01720139 50001





000
SAUS44 KEWX 240752
MTRATT
METAR KATT 240751Z AUTO 00000KT 10SM CLR 17/14 A3013 RMK AO2 SLP195
T01720139





000
SAUS44 KEWX 240652
MTRATT
METAR KATT 240651Z AUTO 00000KT 10SM CLR 18/14 A3014 RMK AO2 SLP194
T01830144





000
SAUS44 KEWX 240553
MTRATT
METAR KATT 240551Z AUTO 11003KT 10SM CLR 19/14 A3013 RMK AO2 SLP193
T01890139 10250 20189 402830189 51006





000
SAUS44 KEWX 240452
MTRATT
METAR KATT 240451Z AUTO 00000KT 10SM CLR 19/14 A3013 RMK AO2 SLP192
T01940144





000
SAUS44 KEWX 240452
MTRATT
METAR KATT 240451Z AUTO 00000KT 10SM CLR 19/14 A3013 RMK AO2 SLP192
T01940144





000
SAUS44 KEWX 240352
MTRATT
METAR KATT 240351Z AUTO 12003KT 10SM CLR 21/14 A3012 RMK AO2 SLP192
T02060139





000
SAUS44 KEWX 240352
MTRATT
METAR KATT 240351Z AUTO 12003KT 10SM CLR 21/14 A3012 RMK AO2 SLP192
T02060139





000
SAUS44 KEWX 240253
MTRATT
METAR KATT 240251Z AUTO 00000KT 10SM CLR 21/14 A3011 RMK AO2 SLP187
T02110139 51012





000
SAUS44 KEWX 240253
MTRATT
METAR KATT 240251Z AUTO 00000KT 10SM CLR 21/14 A3011 RMK AO2 SLP187
T02110139 51012





000
SAUS44 KEWX 240153
MTRATT
METAR KATT 240151Z AUTO 00000KT 10SM CLR 23/14 A3011 RMK AO2 SLP186
T02280139





000
SAUS44 KEWX 240153
MTRATT
METAR KATT 240151Z AUTO 00000KT 10SM CLR 23/14 A3011 RMK AO2 SLP186
T02280139





000
SAUS44 KEWX 240052
MTRATT
METAR KATT 240051Z AUTO 09003KT 10SM CLR 24/14 A3009 RMK AO2 SLP180
T02390144





000
SAUS44 KEWX 232353
MTRATT
METAR KATT 232351Z AUTO 11003KT 10SM CLR 25/14 A3007 RMK AO2 SLP175
T02500144 10283 20250 55001





000
SAUS44 KEWX 232252
MTRATT
METAR KATT 232251Z AUTO 15004KT 10SM CLR 26/14 A3007 RMK AO2 SLP172
T02610144





000
SAUS44 KEWX 232152
MTRATT
METAR KATT 232151Z AUTO 10003KT 10SM FEW050 27/15 A3006 RMK AO2
SLP170 T02670150





000
SAUS44 KEWX 232152
MTRATT
METAR KATT 232151Z AUTO 10003KT 10SM FEW050 27/15 A3006 RMK AO2
SLP170 T02670150





000
SAUS44 KEWX 232052
MTRATT
METAR KATT 232051Z AUTO 01003KT 10SM OVC100 28/15 A3008 RMK AO2
SLP175 T02780150 56022





000
SAUS44 KEWX 231952
MTRATT
METAR KATT 231951Z AUTO 12005KT 10SM FEW048 FEW100 27/15 A3009 RMK
AO2 SLP178 T02720150





000
SAUS44 KEWX 231952
MTRATT
METAR KATT 231951Z AUTO 12005KT 10SM FEW048 FEW100 27/15 A3009 RMK
AO2 SLP178 T02720150





000
SAUS44 KEWX 231852
MTRATT
METAR KATT 231851Z AUTO 00000KT 10SM CLR 28/16 A3011 RMK AO2 SLP184
T02780161





000
SAUS44 KEWX 231852
MTRATT
METAR KATT 231851Z AUTO 00000KT 10SM CLR 28/16 A3011 RMK AO2 SLP184
T02780161





000
SAUS44 KEWX 231752
MTRATT
METAR KATT 231751Z AUTO 00000KT 10SM FEW110 26/16 A3014 RMK AO2
SLP197 T02560156 10261 20189 58004





000
SAUS44 KEWX 231752
MTRATT
METAR KATT 231751Z AUTO 00000KT 10SM FEW110 26/16 A3014 RMK AO2
SLP197 T02560156 10261 20189 58004





000
SAUS44 KEWX 231652
MTRATT
METAR KATT 231651Z AUTO 00000KT 10SM CLR 25/16 A3016 RMK AO2 SLP204
T02500161





000
SAUS44 KEWX 231652
MTRATT
METAR KATT 231651Z AUTO 00000KT 10SM CLR 25/16 A3016 RMK AO2 SLP204
T02500161





000
SAUS44 KEWX 231552
MTRATT
METAR KATT 231551Z AUTO 00000KT 10SM CLR 24/17 A3016 RMK AO2 SLP202
T02390167





000
SAUS44 KEWX 231452
MTRATT
METAR KATT 231451Z AUTO 00000KT 10SM BKN120 22/16 A3016 RMK AO2
SLP202 T02220161 53011





000
SAUS44 KEWX 231452
MTRATT
METAR KATT 231451Z AUTO 00000KT 10SM BKN120 22/16 A3016 RMK AO2
SLP202 T02220161 53011





000
SAUS44 KEWX 231352
MTRATT
METAR KATT 231351Z AUTO 00000KT 10SM BKN120 21/16 A3014 RMK AO2
SLP197 T02060161





000
SAUS44 KEWX 231252
MTRATT
METAR KATT 231251Z AUTO 00000KT 10SM SCT120 19/16 A3013 RMK AO2
SLP195 T01940161





000
SAUS44 KEWX 231157 COR
MTRATT
METAR KATT 231151Z AUTO 00000KT 10SM CLR 19/16 A3012 RMK AO2 SLP191
60000 T01940161 10217 20189 53001





000
SAUS44 KEWX 231152
MTRATT
METAR KATT 231151Z AUTO 00000KT 10SM CLR 19/16 A3012 RMK AO2 SLP191
60000 T01940161 10217 20189 53001





000
SAUS44 KEWX 231052
MTRATT
METAR KATT 231051Z AUTO 00000KT 10SM CLR 19/16 A3010 RMK AO2 SLP185
T01940156





000
SAUS44 KEWX 230952
MTRATT
METAR KATT 230951Z AUTO 00000KT 10SM SCT110 19/16 A3010 RMK AO2
SLP182 T01940156





000
SAUS44 KEWX 230952
MTRATT
METAR KATT 230951Z AUTO 00000KT 10SM SCT110 19/16 A3010 RMK AO2
SLP182 T01940156





000
SAUS44 KEWX 230852
MTRATT
METAR KATT 230851Z AUTO 26003KT 10SM CLR 20/15 A3012 RMK AO2 PRESRR
SLP189 60000 T02000150 53003





000
SAUS44 KEWX 230752
MTRATT
METAR KATT 230751Z AUTO VRB04KT 10SM CLR 20/15 A3010 RMK AO2 RAE0654
SLP183 P0000 T02000150





000
SAUS44 KEWX 230752
MTRATT
METAR KATT 230751Z AUTO VRB04KT 10SM CLR 20/15 A3010 RMK AO2 RAE0654
SLP183 P0000 T02000150





000
SAUS44 KEWX 230652
MTRATT
METAR KATT 230651Z AUTO 00000KT 10SM -RA FEW070 FEW090 SCT110 21/15
A3011 RMK AO2 RAB45 SLP185 P0000 T02060150





000
SAUS44 KEWX 230552
MTRATT
METAR KATT 230551Z AUTO 12003KT 10SM FEW100 22/15 A3011 RMK AO2
RAE0458 SLP186 P0000 60000 T02170150 10250 20211 402830161 53004





000
SAUS44 KEWX 230552
MTRATT
METAR KATT 230551Z AUTO 12003KT 10SM FEW100 22/15 A3011 RMK AO2
RAE0458 SLP186 P0000 60000 T02170150 10250 20211 402830161 53004





000
SAUS44 KEWX 230453
MTRATT
METAR KATT 230451Z AUTO VRB03KT 10SM -RA BKN110 21/16 A3010 RMK AO2
RAB16 SLP184 P0000 T02110156





000
SAUS44 KEWX 230453
MTRATT
METAR KATT 230451Z AUTO VRB03KT 10SM -RA BKN110 21/16 A3010 RMK AO2
RAB16 SLP184 P0000 T02110156





000
SAUS44 KEWX 230352
MTRATT
METAR KATT 230351Z AUTO 06004KT 10SM BKN110 23/15 A3010 RMK AO2
SLP182 T02280150





000
SAUS44 KEWX 230352
MTRATT
METAR KATT 230351Z AUTO 06004KT 10SM BKN110 23/15 A3010 RMK AO2
SLP182 T02280150





000
SAUS44 KEWX 230252
MTRATT
METAR KATT 230251Z AUTO 10003KT 10SM CLR 23/16 A3010 RMK AO2 SLP183
T02280156 50012





000
SAUS44 KEWX 230152
MTRATT
METAR KATT 230151Z AUTO 00000KT 10SM CLR 23/16 A3010 RMK AO2 SLP184
T02330156





000
SAUS44 KEWX 230152
MTRATT
METAR KATT 230151Z AUTO 00000KT 10SM CLR 23/16 A3010 RMK AO2 SLP184
T02330156





000
SAUS44 KEWX 230052
MTRATT
METAR KATT 230051Z AUTO 00000KT 10SM CLR 24/15 A3008 RMK AO2 SLP179
T02390150





000
SAUS44 KEWX 230052
MTRATT
METAR KATT 230051Z AUTO 00000KT 10SM CLR 24/15 A3008 RMK AO2 SLP179
T02390150





    US Dept of Commerce
    National Oceanic and Atmospheric Administration
    National Weather Service
    1325 East West Highway
    Silver Spring, MD 20910
    Page Author: NWS Internet Services Team
Disclaimer
Information Quality
Credits
Glossary
Privacy Policy
Freedom of Information Act (FOIA)
About Us
Career Opportunities